Flight Track Log - Related Links

Times and Time Zones

All times are in EST time to prevent confusion due to time zone crossing. See the EJA929 flight status page for this flight to view local times or setup timezone preferences in your user account.

Time Position Orientation Groundspeed Altitude Reporting Facility
EST Latitude Longitude Course Direction KTS MPH feet Rate Location/Type
Wed 08:15:43 AM 40.7650 -111.9653 195° South 192 221 5,600  Level Salt Lake Center
Wed 08:15:49 AM 40.7611 -111.9667 195° South 191 220 5,800 2,870 Climbing Salt Lake Center
Wed 08:16:29 AM 40.7433 -112.0072 240° Southwest 209 241 7,800 3,240 Climbing Salt Lake Center
Wed 08:17:29 AM 40.7903 -112.0453 328° Northwest 228 262 11,200 2,850 Climbing Salt Lake Center
Wed 08:18:29 AM 40.8386 -111.9708 49° Northeast 292 336 13,500 2,083 Climbing Salt Lake Center
Wed 08:19:30 AM 40.8564 -111.8511 79° East 351 404 15,400 2,083 Climbing Salt Lake Center
Wed 08:20:30 AM 40.8903 -111.7319 69° East 355 409 17,700 1,983 Climbing Salt Lake Center
Wed 08:21:31 AM 40.9231 -111.6044 71° East 375 432 19,400 1,289 Climbing Salt Lake Center
Wed 08:22:31 AM 40.9139 -111.4569 95° East 407 468 20,300 1,000 Climbing Salt Lake Center
Wed 08:23:31 AM 40.8983 -111.2986 97° East 434 499 21,400 1,240 Climbing Salt Lake Center
Wed 08:24:32 AM 40.8781 -111.1378 99° East 444 511 22,800 1,388 Climbing Salt Lake Center
Wed 08:25:32 AM 40.8581 -110.9736 99° East 453 521 24,200 1,100 Climbing Salt Lake Center
Wed 08:26:32 AM 40.8375 -110.8072 99° East 461 531 25,000 992 Climbing Salt Lake Center
Wed 08:27:33 AM 40.8169 -110.6367 99° East 471 542 26,200 1,835 Climbing Salt Lake Center
Wed 08:28:33 AM 40.7931 -110.4447 99° East 481 554 28,700 1,900 Climbing Salt Lake Center
Wed 08:29:33 AM 40.7717 -110.2736 99° East 494 568 30,000 645 Climbing Salt Lake Center
Wed 08:30:34 AM 40.7453 -110.0733 100° East 529 609 30,000  Level Salt Lake Center
Wed 08:31:34 AM 40.7311 -109.8836 96° East 540 621 30,000  Level Salt Lake Center
Wed 08:32:34 AM 40.7147 -109.6606 95° East 545 627 30,000 744 Level Salt Lake Center
Wed 08:33:35 AM 40.7008 -109.4700 95° East 545 627 31,500 1,488 Climbing Salt Lake Center
Wed 08:34:35 AM 40.6869 -109.2792 95° East 545 627 33,000 744 Climbing Salt Lake Center
Wed 08:35:36 AM 40.6719 -109.0811 96° East 546 628 33,000  Level Salt Lake Center
Wed 08:36:06 AM 40.6628 -108.9575 96° East 546 628 33,000  Level Denver Center
Wed 08:37:07 AM 40.6483 -108.7725 96° East 534 615 33,000  Level Denver Center
Wed 08:38:08 AM 40.6333 -108.5897 96° East 526 605 33,000  Level Denver Center
Wed 08:39:08 AM 40.6153 -108.3786 96° East 520 598 33,000  Level Denver Center
Wed 08:40:09 AM 40.5994 -108.1972 96° East 520 598 33,000  Level Denver Center
Wed 08:41:09 AM 40.5847 -108.0172 96° East 517 595 33,000  Level Denver Center
Wed 08:42:10 AM 40.5689 -107.8378 97° East 516 594 33,000  Level Denver Center
Wed 08:43:11 AM 40.5525 -107.6253 96° East 521 600 33,000  Level Denver Center
Wed 08:44:11 AM 40.5392 -107.4453 96° East 518 596 33,000  Level Denver Center
Wed 08:45:12 AM 40.5258 -107.2639 95° East 519 597 33,000  Level Denver Center
Wed 08:46:13 AM 40.5108 -107.0756 96° East 523 602 33,000  Level Denver Center
Wed 08:47:14 AM 40.4972 -106.8847 95° East 522 601 33,000  Level Denver Center
Wed 08:48:14 AM 40.4814 -106.6964 96° East 519 597 33,000  Level Denver Center
Wed 08:49:15 AM 40.4642 -106.4781 96° East 521 600 33,000 -984 Level Denver Center
Wed 08:50:16 AM 40.4489 -106.2956 96° East 526 605 31,000 -2,213 Descending Denver Center
Wed 08:51:17 AM 40.4358 -106.1225 96° East 536 617 28,500 -2,876 Descending Denver Center
Wed 08:52:17 AM 40.4167 -105.8964 96° East 522 601 25,200 -2,926 Descending Denver Center
Wed 08:53:18 AM 40.3986 -105.7164 97° East 503 579 22,600 -2,410 Descending Denver Center
Wed 08:54:19 AM 40.3764 -105.5556 100° East 454 522 20,300 -2,016 Descending Denver Center
Wed 08:55:20 AM 40.3531 -105.4064 102° East 424 488 18,500 -1,686 Descending Denver Center
Wed 08:56:20 AM 40.3350 -105.2775 100° East 366 421 16,900 -1,537 Descending Denver Center
Wed 08:57:21 AM 40.3186 -105.1583 100° East 338 389 15,400 -1,377 Descending Denver Center
Wed 08:58:22 AM 40.3033 -105.0483 100° East 313 360 14,100 -1,180 Descending Denver Center
Wed 08:59:23 AM 40.2892 -104.9483 100° East 286 329 13,000 -1,140 Descending Denver Center
Wed 09:00:23 AM 40.2464 -104.8650 124° Southeast 284 327 11,800 -1,091 Descending Denver Center
Wed 09:01:24 AM 40.1908 -104.7825 131° Southeast 282 325 10,800 -1,082 Descending Denver Center
Wed 09:02:25 AM 40.1283 -104.7386 152° Southeast 261 300 9,600 -984 Descending Denver Center
Wed 09:03:26 AM 40.0656 -104.6986 154° Southeast 254 292 8,800 -1,131 Descending Denver Center
Wed 09:04:27 AM 40.0031 -104.6942 177° South 229 264 7,300 -1,140 Descending Denver Center
Wed 09:05:27 AM 39.9494 -104.6956 181° South 196 226 6,500 -843 Descending Denver Center
Wed 09:06:28 AM 39.9106 -104.6958 180° South 148 170 5,600 -590 Descending Denver Center
Wed 09:07:29 AM 39.8786 -104.6958 180° South 132 152 5,300 -295 Descending Denver Center
Wed 09:09:00 AM 39.8617 -104.6732 180° South  Level Estimated
Wed 09:16:00 AM 39.8617 -104.6732 180° South  Level Estimated
Wed 09:17:00 AM 39.8617 -104.6732 180° South  Level Estimated

Login

Don't have an account? Register now (free) for customized features, flight alerts, and more!